Time;durP1;ratioP1;P1;durP2;ratioP2;P2;SDS_P1;SDS_P2;PMS_P1;PMS_P2;Temp;Humidity;BMP_temperature;BMP_pressure;BME280_temperature;BME280_humidity;BME280_pressure;Samples;Min_cycle;Max_cycle;Signal;HPM_P1;HPM_P2
2023/09/16 00:01:14;;;;;;;;;;;;;;;22.44;48.27;101224.47;5084683;28;19919;-63
2023/09/16 00:03:39;;;;;;;;;;;;;;;22.45;48.61;101220.66;5054788;28;19919;-62
2023/09/16 00:06:05;;;;;;;;;;;;;;;22.51;48.49;101221.53;5054660;28;19913;-62
2023/09/16 00:08:32;;;;;;;;;;;;;;;22.51;48.52;101221.53;5054667;28;19920;-63
2023/09/16 00:10:57;;;;;;;;;;;;;;;22.46;48.49;101208.63;5067923;28;20015;-63
2023/09/16 00:13:33;;;;;;;;;;;;;;;22.49;48.65;101210.88;5074850;28;19913;-63
2023/09/16 00:15:58;;;;;;;;;;;;;;;22.46;48.41;101214.09;5082406;28;19919;-63
2023/09/16 00:18:23;;;;;;;;;;;;;;;22.47;48.95;101210.25;5094631;28;20450;-63
2023/09/16 00:20:49;;;;;;;;;;;;;;;22.47;48.82;101207.53;5094598;28;19911;-63
2023/09/16 00:23:14;;;;;;;;;;;;;;;22.48;48.90;101216.59;5094965;28;19919;-63
2023/09/16 00:25:39;;;;;;;;;;;;;;;22.43;48.92;101203.66;5076683;28;20358;-63
2023/09/16 00:28:06;;;;;;;;;;;;;;;22.39;48.93;101205.25;5082128;28;20289;-62
2023/09/16 00:30:34;;;;;;;;;;;;;;;22.41;49.09;101194.88;5074322;28;19952;-62
2023/09/16 00:32:59;;;;;;;;;;;;;;;22.41;49.30;101203.91;5074234;28;19912;-63
2023/09/16 00:35:25;;;;;;;;;;;;;;;22.35;49.30;101198.63;5073943;28;19923;-63
2023/09/16 00:37:50;;;;;;;;;;;;;;;22.32;49.11;101191.75;5074183;28;19958;-63
2023/09/16 00:40:16;;;;;;;;;;;;;;;22.28;49.21;101198.00;5073958;28;19912;-63
2023/09/16 00:42:42;;;;;;;;;;;;;;;22.18;49.60;101202.22;5074162;28;19919;-63
2023/09/16 00:45:10;;;;;;;;;;;;;;;22.24;49.39;101197.66;5073701;28;19912;-63
2023/09/16 00:47:40;;;;;;;;;;;;;;;22.26;49.79;101192.78;5074074;28;19912;-63
2023/09/16 00:50:05;;;;;;;;;;;;;;;22.36;49.44;101192.91;5073773;28;19990;-63
2023/09/16 00:52:31;;;;;;;;;;;;;;;22.35;49.79;101190.44;5073974;28;19916;-63
2023/09/16 00:54:56;;;;;;;;;;;;;;;22.38;49.73;101193.47;5075661;28;19916;-63
2023/09/16 00:57:22;;;;;;;;;;;;;;;22.32;49.84;101196.41;5085917;28;19937;-63
2023/09/16 00:59:47;;;;;;;;;;;;;;;22.12;49.90;101189.56;5073974;28;19950;-63
2023/09/16 01:02:14;;;;;;;;;;;;;;;22.12;50.24;101186.81;5064596;28;20377;-63
2023/09/16 01:04:40;;;;;;;;;;;;;;;22.16;49.85;101182.50;5053860;28;19913;-63
2023/09/16 01:07:05;;;;;;;;;;;;;;;22.21;50.46;101182.56;5053478;28;19912;-63
2023/09/16 01:09:31;;;;;;;;;;;;;;;22.27;49.96;101185.38;5054666;28;20293;-63
2023/09/16 01:11:56;;;;;;;;;;;;;;;22.17;50.06;101183.31;5073286;28;19916;-63
2023/09/16 01:14:23;;;;;;;;;;;;;;;22.18;50.24;101185.81;5073634;28;19912;-63
2023/09/16 01:16:57;;;;;;;;;;;;;;;22.20;50.26;101177.34;5088787;28;19912;-63
2023/09/16 01:19:29;;;;;;;;;;;;;;;22.12;50.62;101177.78;5093560;28;19912;-63
2023/09/16 01:21:55;;;;;;;;;;;;;;;22.14;50.60;101184.66;5093949;28;20315;-63
2023/09/16 01:24:23;;;;;;;;;;;;;;;22.08;50.79;101188.38;5093570;28;19912;-63
2023/09/16 01:26:48;;;;;;;;;;;;;;;22.18;50.45;101184.97;5092065;28;19935;-63
2023/09/16 01:29:15;;;;;;;;;;;;;;;22.20;50.45;101183.63;5072698;28;20333;-63
2023/09/16 01:31:41;;;;;;;;;;;;;;;22.13;50.98;101187.66;5073365;28;19920;-63
2023/09/16 01:34:15;;;;;;;;;;;;;;;22.18;50.71;101185.81;5073370;28;19913;-63
2023/09/16 01:36:41;;;;;;;;;;;;;;;22.16;51.00;101182.50;5073267;28;19957;-63
2023/09/16 01:39:08;;;;;;;;;;;;;;;22.18;51.03;101183.06;5073268;28;20360;-63
2023/09/16 01:41:34;;;;;;;;;;;;;;;22.21;50.79;101184.47;5073379;28;19924;-63
2023/09/16 01:44:01;;;;;;;;;;;;;;;22.23;50.95;101185.03;5073492;28;19912;-63
2023/09/16 01:46:26;;;;;;;;;;;;;;;22.24;50.96;101179.31;5073683;28;19917;-63
2023/09/16 01:48:51;;;;;;;;;;;;;;;22.22;50.84;101184.22;5073241;28;19973;-63
2023/09/16 01:51:17;;;;;;;;;;;;;;;22.38;50.60;101178.94;5072906;28;19924;-63
2023/09/16 01:53:43;;;;;;;;;;;;;;;22.35;50.80;101179.47;5063674;28;19952;-63
2023/09/16 01:56:08;;;;;;;;;;;;;;;22.37;50.67;101180.06;5077880;28;19912;-63
2023/09/16 01:58:33;;;;;;;;;;;;;;;22.31;50.63;101178.34;5093316;28;20016;-63
2023/09/16 02:00:59;;;;;;;;;;;;;;;22.33;50.24;101174.25;5093447;28;19958;-64
2023/09/16 02:03:24;;;;;;;;;;;;;;;22.37;50.15;101182.78;5073910;28;19962;-63
2023/09/16 02:05:49;;;;;;;;;;;;;;;22.19;50.50;101184.75;5072894;28;19913;-63
2023/09/16 02:08:15;;;;;;;;;;;;;;;22.26;50.21;101178.28;5072574;28;19924;-63
2023/09/16 02:10:40;;;;;;;;;;;;;;;22.30;50.58;101177.50;5061778;28;19966;-62
2023/09/16 02:13:05;;;;;;;;;;;;;;;22.37;50.28;101175.41;5052844;28;19913;-63
2023/09/16 02:15:31;;;;;;;;;;;;;;;22.33;50.42;101177.00;5061355;28;19912;-63
2023/09/16 02:17:56;;;;;;;;;;;;;;;22.31;50.27;101176.44;5093238;28;19912;-61
2023/09/16 02:20:21;;;;;;;;;;;;;;;22.35;50.31;101172.09;5093110;28;20330;-63
2023/09/16 02:22:48;;;;;;;;;;;;;;;22.43;49.92;101173.53;5092930;28;19991;-63
2023/09/16 02:25:15;;;;;;;;;;;;;;;22.42;49.77;101180.13;5093168;28;19916;-63
2023/09/16 02:27:40;;;;;;;;;;;;;;;22.44;49.74;101186.16;5089310;28;20365;-63
2023/09/16 02:30:06;;;;;;;;;;;;;;;22.49;50.01;101175.28;5072941;28;19912;-63
2023/09/16 02:32:31;;;;;;;;;;;;;;;22.37;49.50;101182.78;5072840;28;20054;-63
2023/09/16 02:34:57;;;;;;;;;;;;;;;22.35;49.62;101176.75;5072838;28;20007;-63
2023/09/16 02:37:22;;;;;;;;;;;;;;;22.34;49.33;101177.81;5072875;28;19916;-63
2023/09/16 02:39:47;;;;;;;;;;;;;;;22.33;49.66;101168.78;5072798;28;19966;-63
2023/09/16 02:42:12;;;;;;;;;;;;;;;22.40;49.47;101166.69;5075867;28;20011;-63
2023/09/16 02:44:37;;;;;;;;;;;;;;;22.34;49.31;101164.97;5076211;28;19912;-63
2023/09/16 02:47:03;;;;;;;;;;;;;;;22.34;49.58;101172.34;5076168;28;19917;-63
2023/09/16 02:49:29;;;;;;;;;;;;;;;22.36;49.30;101172.91;5075926;28;19916;-63
2023/09/16 02:51:55;;;;;;;;;;;;;;;22.27;49.87;101175.28;5076244;28;20346;-63
2023/09/16 02:54:20;;;;;;;;;;;;;;;22.34;49.40;101170.44;5075628;28;19912;-63
2023/09/16 02:56:45;;;;;;;;;;;;;;;22.36;49.28;101179.22;5076005;28;19962;-63
2023/09/16 02:59:10;;;;;;;;;;;;;;;22.35;49.24;101171.28;5075794;28;19917;-63
2023/09/16 03:01:35;;;;;;;;;;;;;;;22.33;49.33;101173.44;5075845;28;19918;-63
2023/09/16 03:04:01;;;;;;;;;;;;;;;22.19;49.62;101172.94;5075823;28;20329;-63
2023/09/16 03:06:26;;;;;;;;;;;;;;;22.27;49.72;101180.75;5075834;28;19916;-63
2023/09/16 03:08:52;;;;;;;;;;;;;;;22.22;49.56;101177.91;5075574;28;20035;-63
2023/09/16 03:11:17;;;;;;;;;;;;;;;22.16;49.31;101174.28;5059633;28;19966;-63
2023/09/16 03:13:42;;;;;;;;;;;;;;;22.23;49.51;101169.47;5056045;28;19917;-63
2023/09/16 03:16:12;;;;;;;;;;;;;;;22.23;49.26;101165.88;5074725;28;19912;-63
2023/09/16 03:18:37;;;;;;;;;;;;;;;22.33;49.19;101165.22;5095900;28;19920;-63
2023/09/16 03:21:03;;;;;;;;;;;;;;;22.36;49.08;101162.81;5096155;28;19912;-63
2023/09/16 03:23:28;;;;;;;;;;;;;;;22.42;49.35;101166.44;5087222;28;20030;-63
2023/09/16 03:25:53;;;;;;;;;;;;;;;22.40;49.59;101163.94;5075665;28;19942;-63
2023/09/16 03:28:18;;;;;;;;;;;;;;;22.29;49.13;101169.53;5084774;28;19912;-63
2023/09/16 03:30:43;;;;;;;;;;;;;;;22.30;48.98;101160.25;5075420;28;19916;-63
2023/09/16 03:33:09;;;;;;;;;;;;;;;22.24;49.14;101170.28;5075671;28;19913;-63
2023/09/16 03:35:34;;;;;;;;;;;;;;;22.27;49.20;101166.22;5075714;28;19919;-63
2023/09/16 03:38:00;;;;;;;;;;;;;;;22.30;49.03;101158.34;5075273;28;20293;-62
2023/09/16 03:40:25;;;;;;;;;;;;;;;22.30;49.02;101161.06;5075232;28;19919;-63
2023/09/16 03:42:50;;;;;;;;;;;;;;;22.31;49.06;101164.66;5075289;28;19916;-63
2023/09/16 03:45:15;;;;;;;;;;;;;;;22.38;49.11;101159.78;5075325;28;20272;-63
2023/09/16 03:47:41;;;;;;;;;;;;;;;22.19;49.06;101165.59;5074979;28;19913;-64
2023/09/16 03:50:06;;;;;;;;;;;;;;;22.24;49.43;101162.06;5075136;28;19951;-64
2023/09/16 03:52:31;;;;;;;;;;;;;;;22.32;49.20;101167.13;5074516;28;20395;-63
2023/09/16 03:54:57;;;;;;;;;;;;;;;22.37;49.13;101163.63;5077121;28;20371;-63
2023/09/16 03:57:22;;;;;;;;;;;;;;;22.32;49.13;101160.81;5095376;28;19919;-63
2023/09/16 03:59:47;;;;;;;;;;;;;;;22.34;49.48;101166.88;5095063;28;19925;-63
2023/09/16 04:02:13;;;;;;;;;;;;;;;22.47;49.06;101174.69;5066946;28;20327;-63
2023/09/16 04:04:38;;;;;;;;;;;;;;;22.52;48.99;101162.97;5054792;28;19952;-63
2023/09/16 04:07:03;;;;;;;;;;;;;;;22.57;48.90;101165.78;5054936;28;19920;-63
2023/09/16 04:09:29;;;;;;;;;;;;;;;22.50;48.37;101163.22;5055381;28;19959;-63
2023/09/16 04:11:54;;;;;;;;;;;;;;;22.56;48.40;101156.72;5074498;28;19916;-63
2023/09/16 04:14:20;;;;;;;;;;;;;;;22.59;48.68;101153.47;5074402;28;19912;-64
2023/09/16 04:16:47;;;;;;;;;;;;;;;22.54;48.33;101150.69;5089322;28;19912;-63
2023/09/16 04:19:12;;;;;;;;;;;;;;;22.60;48.62;101151.56;5090113;28;19917;-63
2023/09/16 04:21:38;;;;;;;;;;;;;;;22.67;48.69;101159.59;5074638;28;19912;-63
2023/09/16 04:24:03;;;;;;;;;;;;;;;22.67;48.38;101151.38;5074115;28;19916;-63
2023/09/16 04:26:28;;;;;;;;;;;;;;;22.68;48.72;101153.84;5074406;28;20019;-63
2023/09/16 04:28:54;;;;;;;;;;;;;;;22.69;48.47;101163.72;5083424;28;20289;-64
2023/09/16 04:31:19;;;;;;;;;;;;;;;22.69;48.65;101152.75;5074158;28;19916;-63
2023/09/16 04:33:44;;;;;;;;;;;;;;;22.76;48.51;101158.03;5074424;28;20384;-63
2023/09/16 04:36:10;;;;;;;;;;;;;;;22.72;47.82;101144.03;5073982;28;20367;-63
2023/09/16 04:38:36;;;;;;;;;;;;;;;22.77;47.84;101141.34;5074048;28;20134;-63
2023/09/16 04:41:02;;;;;;;;;;;;;;;22.71;47.87;101142.38;5074137;28;20371;-63
2023/09/16 04:43:27;;;;;;;;;;;;;;;22.71;48.26;101131.41;5073952;28;19959;-63
2023/09/16 04:45:54;;;;;;;;;;;;;;;22.63;47.94;101129.16;5074091;28;20284;-64
2023/09/16 04:48:22;;;;;;;;;;;;;;;22.54;48.03;101130.69;5056048;28;19973;-63
2023/09/16 04:50:47;;;;;;;;;;;;;;;22.52;47.87;101136.44;5073477;28;20423;-63
2023/09/16 04:53:12;;;;;;;;;;;;;;;22.50;48.36;101126.81;5073527;28;19916;-64
2023/09/16 04:55:41;;;;;;;;;;;;;;;22.50;47.92;101124.91;5081664;28;19912;-63
2023/09/16 04:58:06;;;;;;;;;;;;;;;22.42;47.67;101128.13;5077569;28;20366;-63
2023/09/16 05:00:33;;;;;;;;;;;;;;;22.43;47.98;101129.75;5073918;28;19919;-63
2023/09/16 05:03:02;;;;;;;;;;;;;;;22.47;48.08;101124.59;5058260;28;19917;-63
2023/09/16 05:05:27;;;;;;;;;;;;;;;22.39;48.23;101126.69;5052927;28;20273;-63
2023/09/16 05:07:52;;;;;;;;;;;;;;;22.42;48.10;101126.19;5053305;28;19921;-63
2023/09/16 05:10:17;;;;;;;;;;;;;;;22.47;48.12;101135.53;5061098;28;19961;-63
2023/09/16 05:12:42;;;;;;;;;;;;;;;22.41;48.07;101134.66;5073480;28;19967;-63
2023/09/16 05:15:08;;;;;;;;;;;;;;;22.46;48.27;101133.91;5073433;28;19918;-63
2023/09/16 05:17:35;;;;;;;;;;;;;;;22.49;48.52;101136.09;5073273;28;19917;-63
2023/09/16 05:20:00;;;;;;;;;;;;;;;22.53;47.92;101140.81;5073625;28;20292;-63
2023/09/16 05:22:25;;;;;;;;;;;;;;;22.55;48.11;101141.41;5073706;28;19912;-64
2023/09/16 05:24:50;;;;;;;;;;;;;;;22.56;47.85;101140.28;5055427;28;20389;-63
2023/09/16 05:27:16;;;;;;;;;;;;;;;22.52;47.59;101139.16;5060843;28;19912;-63
2023/09/16 05:29:41;;;;;;;;;;;;;;;22.44;47.13;101136.88;5076884;28;19912;-63
2023/09/16 05:32:06;;;;;;;;;;;;;;;22.56;47.41;101147.69;5073146;28;20395;-64
2023/09/16 05:34:32;;;;;;;;;;;;;;;22.52;46.76;101143.81;5073256;28;19985;-63
2023/09/16 05:36:58;;;;;;;;;;;;;;;22.53;47.36;101153.66;5073256;28;19913;-63
2023/09/16 05:39:23;;;;;;;;;;;;;;;22.47;47.28;101146.50;5058797;28;19916;-63
2023/09/16 05:41:49;;;;;;;;;;;;;;;22.51;47.50;101144.88;5052991;28;19913;-63
2023/09/16 05:44:19;;;;;;;;;;;;;;;22.62;47.30;101149.38;5053062;28;19913;-63
2023/09/16 05:46:44;;;;;;;;;;;;;;;22.59;47.25;101148.00;5053677;28;19916;-63
2023/09/16 05:49:11;;;;;;;;;;;;;;;22.59;47.45;101148.00;5057893;28;20471;-63
2023/09/16 05:51:36;;;;;;;;;;;;;;;22.64;47.34;101143.66;5072879;28;20395;-63
2023/09/16 05:54:01;;;;;;;;;;;;;;;22.60;47.51;101143.34;5072408;28;19916;-63
2023/09/16 05:56:27;;;;;;;;;;;;;;;22.55;47.81;101141.41;5088100;28;19920;-63
2023/09/16 05:58:52;;;;;;;;;;;;;;;22.61;47.64;101145.84;5093592;28;19912;-63
2023/09/16 06:01:17;;;;;;;;;;;;;;;22.60;47.50;101141.47;5091841;28;20392;-63
2023/09/16 06:03:42;;;;;;;;;;;;;;;22.63;47.49;101144.75;5072958;28;20245;-63
2023/09/16 06:06:08;;;;;;;;;;;;;;;22.68;47.51;101150.25;5073253;28;19912;-63
2023/09/16 06:08:33;;;;;;;;;;;;;;;22.72;47.46;101133.06;5072591;28;19947;-64
2023/09/16 06:10:58;;;;;;;;;;;;;;;22.80;47.50;101131.78;5059421;28;20010;-64
2023/09/16 06:13:23;;;;;;;;;;;;;;;22.84;47.73;101140.31;5071030;28;19920;-64
2023/09/16 06:15:49;;;;;;;;;;;;;;;22.71;47.23;101136.06;5074180;28;19919;-64
2023/09/16 06:18:14;;;;;;;;;;;;;;;22.78;47.63;101133.94;5076951;28;19916;-64
2023/09/16 06:20:40;;;;;;;;;;;;;;;22.87;46.95;101128.84;5076578;28;19912;-63
2023/09/16 06:23:05;;;;;;;;;;;;;;;23.04;47.33;101118.59;5076860;28;19912;-63
2023/09/16 06:25:31;;;;;;;;;;;;;;;23.11;46.82;101119.22;5076988;28;20358;-63
2023/09/16 06:27:59;;;;;;;;;;;;;;;23.07;47.05;101115.34;5085963;28;19935;-64
2023/09/16 06:30:24;;;;;;;;;;;;;;;23.28;47.31;101118.25;5076440;28;19912;-64
2023/09/16 06:32:52;;;;;;;;;;;;;;;23.35;47.17;101114.19;5076425;28;19913;-64
2023/09/16 06:35:17;;;;;;;;;;;;;;;23.39;46.71;101119.97;5065274;28;19924;-64
2023/09/16 06:37:42;;;;;;;;;;;;;;;23.49;45.91;101114.53;5056524;28;20371;-64
2023/09/16 06:40:08;;;;;;;;;;;;;;;23.57;46.35;101110.50;5056609;28;19940;-64
2023/09/16 06:42:33;;;;;;;;;;;;;;;23.70;46.33;101112.78;5056431;28;19920;-63
2023/09/16 06:44:58;;;;;;;;;;;;;;;23.81;46.46;101116.44;5056283;28;19916;-63
2023/09/16 06:47:28;;;;;;;;;;;;;;;23.83;45.87;101113.41;5056163;28;20012;-64
2023/09/16 06:49:54;;;;;;;;;;;;;;;23.78;46.06;101112.25;5066664;28;19924;-64
2023/09/16 06:52:22;;;;;;;;;;;;;;;23.81;46.07;101121.91;5075902;28;19924;-64
2023/09/16 06:54:48;;;;;;;;;;;;;;;23.92;45.95;101112.66;5075522;28;19919;-64
2023/09/16 06:57:13;;;;;;;;;;;;;;;23.97;45.99;101114.56;5076126;28;20435;-64
2023/09/16 06:59:39;;;;;;;;;;;;;;;24.04;45.69;101112.41;5076051;28;19913;-64
2023/09/16 07:02:04;;;;;;;;;;;;;;;24.08;46.15;101119.00;5075761;28;19961;-64
2023/09/16 07:04:29;;;;;;;;;;;;;;;24.04;45.94;101122.56;5076028;28;20301;-64
2023/09/16 07:06:54;;;;;;;;;;;;;;;24.00;45.33;101116.78;5075843;28;19935;-64
2023/09/16 07:09:20;;;;;;;;;;;;;;;24.10;45.72;101125.06;5075757;28;19921;-64
2023/09/16 07:11:45;;;;;;;;;;;;;;;24.06;45.61;101115.72;5076115;28;19916;-64
2023/09/16 07:14:11;;;;;;;;;;;;;;;23.98;45.50;101123.63;5076161;28;19916;-64
2023/09/16 07:16:39;;;;;;;;;;;;;;;23.82;44.52;101117.25;5088928;28;19977;-64
2023/09/16 07:19:04;;;;;;;;;;;;;;;23.77;44.99;101126.22;5082673;28;19947;-64
2023/09/16 07:21:31;;;;;;;;;;;;;;;23.90;44.88;101119.47;5075888;28;19974;-64
2023/09/16 07:24:00;;;;;;;;;;;;;;;23.78;44.84;101125.16;5075521;28;20349;-64
2023/09/16 07:26:26;;;;;;;;;;;;;;;23.81;44.32;101124.66;5075350;28;19955;-64
2023/09/16 07:28:51;;;;;;;;;;;;;;;23.58;43.98;101120.38;5083854;28;19963;-64
2023/09/16 07:31:16;;;;;;;;;;;;;;;23.57;44.24;101122.28;5065972;28;19959;-64
2023/09/16 07:33:41;;;;;;;;;;;;;;;23.52;44.07;101121.44;5055345;28;19959;-64
2023/09/16 07:36:07;;;;;;;;;;;;;;;23.35;44.73;101125.16;5055257;28;19912;-64
2023/09/16 07:38:32;;;;;;;;;;;;;;;23.62;45.25;101123.41;5055500;28;19920;-64
2023/09/16 07:40:57;;;;;;;;;;;;;;;23.84;44.48;101126.03;5055180;28;19913;-64
2023/09/16 07:43:23;;;;;;;;;;;;;;;23.85;44.94;101128.53;5055090;28;19917;-64
2023/09/16 07:45:48;;;;;;;;;;;;;;;23.85;44.72;101127.69;5061906;28;20006;-64
2023/09/16 07:48:14;;;;;;;;;;;;;;;23.62;45.00;101134.38;5075056;28;19917;-65
2023/09/16 07:50:39;;;;;;;;;;;;;;;23.60;44.90;101133.81;5074714;28;20408;-64
2023/09/16 07:53:05;;;;;;;;;;;;;;;23.64;44.77;101126.72;5074668;28;19913;-64
2023/09/16 07:55:30;;;;;;;;;;;;;;;23.55;44.87;101140.09;5081314;28;20376;-64
2023/09/16 07:57:55;;;;;;;;;;;;;;;23.66;44.81;101135.50;5094967;28;19912;-64
2023/09/16 08:00:20;;;;;;;;;;;;;;;23.74;45.24;101129.53;5095257;28;19954;-64
2023/09/16 08:02:46;;;;;;;;;;;;;;;23.73;44.50;101120.44;5081512;28;19913;-64
2023/09/16 08:05:11;;;;;;;;;;;;;;;23.77;44.66;101121.59;5074676;28;19927;-64
2023/09/16 08:07:36;;;;;;;;;;;;;;;23.90;44.38;101131.28;5074717;28;19913;-64
2023/09/16 08:10:02;;;;;;;;;;;;;;;23.91;43.54;101126.63;5074652;28;20373;-64
2023/09/16 08:12:27;;;;;;;;;;;;;;;23.92;43.92;101123.63;5074406;28;19916;-65
2023/09/16 08:14:52;;;;;;;;;;;;;;;23.88;43.55;101133.44;5074442;28;19917;-65
2023/09/16 08:17:18;;;;;;;;;;;;;;;23.85;43.99;101130.44;5093666;28;19951;-64
2023/09/16 08:19:43;;;;;;;;;;;;;;;23.95;44.45;101138.72;5094770;28;19916;-64
2023/09/16 08:22:08;;;;;;;;;;;;;;;23.98;43.67;101138.19;5094924;28;19919;-64
2023/09/16 08:24:34;;;;;;;;;;;;;;;23.98;43.57;101135.44;5094930;28;19912;-64
2023/09/16 08:26:59;;;;;;;;;;;;;;;24.05;43.19;101137.94;5093021;28;20373;-64
2023/09/16 08:29:25;;;;;;;;;;;;;;;24.05;43.13;101140.66;5080074;28;20426;-64
2023/09/16 08:31:50;;;;;;;;;;;;;;;24.15;43.48;101138.81;5074127;28;19917;-64
2023/09/16 08:34:15;;;;;;;;;;;;;;;24.22;43.11;101138.56;5074174;28;19955;-64
2023/09/16 08:36:40;;;;;;;;;;;;;;;24.31;43.63;101144.34;5074323;28;19920;-64
2023/09/16 08:39:06;;;;;;;;;;;;;;;24.28;43.54;101142.16;5073939;28;20285;-64
2023/09/16 08:41:41;;;;;;;;;;;;;;;24.27;42.66;101148.72;5073814;28;19958;-64
2023/09/16 08:44:08;;;;;;;;;;;;;;;24.22;42.88;101155.03;5056022;28;19912;-64
2023/09/16 08:46:34;;;;;;;;;;;;;;;24.12;42.42;101155.78;5073978;28;20012;-64
2023/09/16 08:49:00;;;;;;;;;;;;;;;24.12;42.90;101147.56;5073826;28;19999;-64
2023/09/16 08:51:26;;;;;;;;;;;;;;;23.91;42.30;101154.88;5073597;28;19916;-64
2023/09/16 08:53:51;;;;;;;;;;;;;;;23.88;42.77;101157.31;5073262;28;19918;-64
2023/09/16 08:56:17;;;;;;;;;;;;;;;24.03;43.38;101159.31;5087384;28;19912;-64
2023/09/16 08:58:43;;;;;;;;;;;;;;;23.99;42.71;101150.78;5094065;28;20007;-64
2023/09/16 09:01:09;;;;;;;;;;;;;;;23.91;42.79;101152.13;5083980;28;20002;-64
2023/09/16 09:03:35;;;;;;;;;;;;;;;23.73;42.26;101147.06;5053755;28;20006;-64
2023/09/16 09:06:00;;;;;;;;;;;;;;;23.78;42.52;101166.28;5053604;28;19955;-64
2023/09/16 09:08:25;;;;;;;;;;;;;;;23.75;42.61;101164.06;5053431;28;19966;-64
2023/09/16 09:10:51;;;;;;;;;;;;;;;23.69;43.09;101168.69;5066025;28;20023;-64
2023/09/16 09:13:16;;;;;;;;;;;;;;;23.62;43.10;101168.09;5073633;28;19951;-64
2023/09/16 09:15:42;;;;;;;;;;;;;;;23.58;43.31;101170.53;5079446;28;19912;-64
2023/09/16 09:18:08;;;;;;;;;;;;;;;23.57;43.66;101171.66;5093643;28;20045;-64
2023/09/16 09:20:33;;;;;;;;;;;;;;;23.51;43.05;101166.38;5093889;28;19912;-64
2023/09/16 09:22:59;;;;;;;;;;;;;;;23.47;43.57;101166.06;5091150;28;19951;-64
2023/09/16 09:25:28;;;;;;;;;;;;;;;23.54;43.25;101174.09;5073323;28;20015;-63
2023/09/16 09:27:54;;;;;;;;;;;;;;;23.56;43.62;101163.69;5082623;28;19916;-64
2023/09/16 09:30:24;;;;;;;;;;;;;;;23.54;43.66;101166.69;5073352;28;19919;-63
2023/09/16 09:32:49;;;;;;;;;;;;;;;23.52;42.99;101170.78;5073632;28;19917;-63
2023/09/16 09:35:15;;;;;;;;;;;;;;;23.53;43.61;101165.03;5073220;28;20274;-63
2023/09/16 09:37:40;;;;;;;;;;;;;;;23.46;42.86;101169.06;5072975;28;19912;-63
2023/09/16 09:40:07;;;;;;;;;;;;;;;23.52;43.26;101168.03;5073490;28;20041;-63
2023/09/16 09:42:32;;;;;;;;;;;;;;;23.50;42.95;101164.75;5073319;28;19919;-64
2023/09/16 09:45:01;;;;;;;;;;;;;;;23.49;43.39;101168.56;5073028;28;20000;-63
2023/09/16 09:47:26;;;;;;;;;;;;;;;23.44;43.46;101172.09;5073187;28;19916;-62
2023/09/16 09:49:52;;;;;;;;;;;;;;;23.43;43.60;101166.88;5073189;28;19920;-63
2023/09/16 09:52:17;;;;;;;;;;;;;;;23.50;43.24;101172.97;5076488;28;19923;-64
2023/09/16 09:54:44;;;;;;;;;;;;;;;23.47;43.29;101166.06;5077116;28;19919;-63
2023/09/16 09:57:09;;;;;;;;;;;;;;;23.45;43.41;101173.75;5085058;28;19955;-63
2023/09/16 09:59:34;;;;;;;;;;;;;;;23.46;43.18;101169.94;5057191;28;19917;-63
2023/09/16 10:02:03;;;;;;;;;;;;;;;23.41;43.23;101172.63;5056863;28;19913;-63
2023/09/16 10:04:29;;;;;;;;;;;;;;;23.39;43.81;101174.81;5057010;28;19913;-63
2023/09/16 10:06:57;;;;;;;;;;;;;;;23.45;43.49;101173.75;5062819;28;19920;-63
2023/09/16 10:09:22;;;;;;;;;;;;;;;23.51;43.38;101169.13;5076652;28;20039;-63
2023/09/16 10:11:47;;;;;;;;;;;;;;;23.46;43.74;101166.34;5056863;28;20023;-63
2023/09/16 10:14:13;;;;;;;;;;;;;;;23.45;43.94;101162.78;5056947;28;19917;-63
2023/09/16 10:16:38;;;;;;;;;;;;;;;23.48;43.31;101161.44;5084088;28;19912;-63
2023/09/16 10:19:04;;;;;;;;;;;;;;;23.48;42.79;101154.03;5096225;28;19930;-64
2023/09/16 10:21:29;;;;;;;;;;;;;;;23.56;43.58;101158.19;5076581;28;20262;-63
2023/09/16 10:23:54;;;;;;;;;;;;;;;23.51;43.47;101150.78;5076600;28;19913;-63
2023/09/16 10:26:20;;;;;;;;;;;;;;;23.51;43.12;101153.53;5076806;28;19913;-63
2023/09/16 10:28:46;;;;;;;;;;;;;;;23.45;43.67;101159.22;5085891;28;20399;-63
2023/09/16 10:31:12;;;;;;;;;;;;;;;23.39;43.34;101145.47;5076588;28;19948;-63
2023/09/16 10:33:39;;;;;;;;;;;;;;;23.41;43.28;101150.69;5076458;28;20388;-63
2023/09/16 10:36:05;;;;;;;;;;;;;;;23.34;43.54;101153.66;5076499;28;19959;-63
2023/09/16 10:38:31;;;;;;;;;;;;;;;23.33;43.81;101153.94;5058711;28;19920;-63
2023/09/16 10:40:57;;;;;;;;;;;;;;;23.37;44.10;101152.31;5076199;28;19951;-63
2023/09/16 10:43:22;;;;;;;;;;;;;;;23.44;44.27;101152.91;5058259;28;19958;-63
2023/09/16 10:45:48;;;;;;;;;;;;;;;23.51;44.12;101150.78;5076021;28;20254;-63
2023/09/16 10:48:13;;;;;;;;;;;;;;;23.56;43.76;101159.00;5076155;28;20001;-63
2023/09/16 10:50:39;;;;;;;;;;;;;;;23.62;44.47;101156.31;5075958;28;20367;-63
2023/09/16 10:53:05;;;;;;;;;;;;;;;23.70;44.51;101164.03;5075726;28;19916;-63
2023/09/16 10:55:31;;;;;;;;;;;;;;;23.75;44.46;101172.31;5075541;28;20292;-63
2023/09/16 10:58:05;;;;;;;;;;;;;;;23.79;43.83;101167.97;5075965;28;19919;-63
2023/09/16 11:00:37;;;;;;;;;;;;;;;23.78;43.04;101177.28;5057959;28;19913;-63
2023/09/16 11:03:04;;;;;;;;;;;;;;;23.77;42.62;101183.84;5075689;28;20280;-63
2023/09/16 11:05:29;;;;;;;;;;;;;;;23.71;41.76;101179.41;5075803;28;19919;-63
2023/09/16 11:07:55;;;;;;;;;;;;;;;23.61;41.24;101171.94;5075474;28;19920;-63
2023/09/16 11:10:20;;;;;;;;;;;;;;;23.51;40.47;101177.34;5067592;28;19960;-63
2023/09/16 11:12:46;;;;;;;;;;;;;;;23.55;41.49;101178.47;5055595;28;19917;-63
2023/09/16 11:15:13;;;;;;;;;;;;;;;23.60;41.36;101177.69;5058375;28;19959;-63
2023/09/16 11:17:39;;;;;;;;;;;;;;;23.69;41.31;101168.69;5075576;28;19913;-63
2023/09/16 11:20:12;;;;;;;;;;;;;;;23.78;40.62;101166.28;5075561;28;20008;-63
2023/09/16 11:22:38;;;;;;;;;;;;;;;23.83;40.35;101162.78;5075515;28;19920;-63
2023/09/16 11:25:04;;;;;;;;;;;;;;;23.84;41.28;101169.94;5075334;28;19970;-63
2023/09/16 11:27:31;;;;;;;;;;;;;;;23.86;40.87;101167.75;5082646;28;19916;-63
2023/09/16 11:29:57;;;;;;;;;;;;;;;23.90;40.34;101166.97;5066090;28;19912;-63
2023/09/16 11:32:22;;;;;;;;;;;;;;;23.89;40.38;101165.28;5075303;28;19924;-64
2023/09/16 11:34:47;;;;;;;;;;;;;;;23.91;40.39;101167.78;5075411;28;19924;-64
2023/09/16 11:37:13;;;;;;;;;;;;;;;23.87;40.20;101158.44;5075117;28;19912;-64
2023/09/16 11:39:42;;;;;;;;;;;;;;;23.94;41.03;101156.25;5075577;28;19920;-64
2023/09/16 11:42:08;;;;;;;;;;;;;;;24.05;39.73;101163.47;5075289;28;19947;-64
2023/09/16 11:44:37;;;;;;;;;;;;;;;24.04;39.89;101169.22;5075239;28;20266;-64
2023/09/16 11:47:03;;;;;;;;;;;;;;;24.02;39.80;101180.47;5075148;28;19919;-64
2023/09/16 11:49:31;;;;;;;;;;;;;;;24.06;39.93;101186.25;5074685;28;19923;-64
2023/09/16 11:51:56;;;;;;;;;;;;;;;24.07;40.29;101183.22;5074859;28;19920;-64
2023/09/16 11:54:22;;;;;;;;;;;;;;;24.08;40.28;101175.81;5074182;28;19913;-63
2023/09/16 11:56:47;;;;;;;;;;;;;;;24.15;40.55;101177.22;5074897;28;19913;-64
2023/09/16 11:59:12;;;;;;;;;;;;;;;24.18;40.12;101170.38;5074615;28;19924;-64
2023/09/16 12:01:42;;;;;;;;;;;;;;;24.32;39.31;101173.47;5070522;28;20361;-64
2023/09/16 12:04:09;;;;;;;;;;;;;;;24.56;38.76;101162.03;5054964;28;19917;-64
2023/09/16 12:06:35;;;;;;;;;;;;;;;24.80;38.38;101165.13;5054732;28;19913;-64
2023/09/16 12:09:03;;;;;;;;;;;;;;;24.86;38.34;101162.09;5054187;28;20403;-64
2023/09/16 12:11:28;;;;;;;;;;;;;;;25.04;38.30;101159.94;5071857;28;19931;-64
2023/09/16 12:13:54;;;;;;;;;;;;;;;25.15;38.58;101150.59;5073716;28;19916;-64
2023/09/16 12:16:20;;;;;;;;;;;;;;;25.29;37.55;101153.63;5085458;28;19912;-64
2023/09/16 12:18:45;;;;;;;;;;;;;;;25.63;38.59;101159.38;5094320;28;20295;-64
2023/09/16 12:21:12;;;;;;;;;;;;;;;26.08;39.29;101162.31;5094560;28;19916;-64
2023/09/16 12:23:39;;;;;;;;;;;;;;;26.40;37.18;101163.81;5094313;28;19919;-64
2023/09/16 12:26:06;;;;;;;;;;;;;;;26.62;37.38;101163.47;5094358;28;19969;-64
2023/09/16 12:28:32;;;;;;;;;;;;;;;26.80;37.24;101160.03;5084494;28;19966;-64